Time;durP1;ratioP1;P1;durP2;ratioP2;P2;SDS_P1;SDS_P2;PMS_P1;PMS_P2;Temp;Humidity;BMP_temperature;BMP_pressure;BME280_temperature;BME280_humidity;BME280_pressure;Samples;Min_cycle;Max_cycle;Signal;HPM_P1;HPM_P2
2022/10/21 00:00:15;;;;;;;6.03;2.35;;;;;;;10.36;66.87;101098.69;5107533;28;20040;-32
2022/10/21 00:02:41;;;;;;;6.63;2.40;;;;;;;10.44;66.80;101096.75;5089476;28;20044;-25
2022/10/21 00:05:07;;;;;;;4.97;2.35;;;;;;;10.32;66.85;101111.63;5107717;28;20069;-26
2022/10/21 00:07:33;;;;;;;9.45;3.03;;;;;;;9.95;67.23;101086.84;5107741;28;20092;-26
2022/10/21 00:09:58;;;;;;;5.47;2.40;;;;;;;10.35;66.34;101108.53;5107590;28;20095;-28
2022/10/21 00:12:23;;;;;;;9.45;3.40;;;;;;;9.99;67.27;101104.09;5107295;28;20027;-29
2022/10/21 00:14:49;;;;;;;7.30;2.63;;;;;;;10.15;67.26;101112.84;5089372;28;20036;-26
2022/10/21 00:17:14;;;;;;;7.03;2.78;;;;;;;10.46;65.75;101101.88;5108056;28;20031;-29
2022/10/21 00:19:41;;;;;;;7.40;3.13;;;;;;;10.03;66.69;101092.03;5107740;28;20019;-30
2022/10/21 00:22:07;;;;;;;11.30;4.38;;;;;;;10.05;66.11;101098.00;5107664;28;20055;-26
2022/10/21 00:24:32;;;;;;;8.23;3.83;;;;;;;9.97;66.40;101086.63;5107328;28;20159;-26
2022/10/21 00:26:58;;;;;;;8.80;2.97;;;;;;;10.15;66.12;101107.50;5107543;28;20121;-30
2022/10/21 00:29:23;;;;;;;9.95;2.92;;;;;;;9.99;66.37;101113.91;5107771;28;20061;-27
2022/10/21 00:31:52;;;;;;;8.50;3.10;;;;;;;9.93;66.40;101104.84;5107571;28;20043;-28
2022/10/21 00:34:18;;;;;;;7.68;2.50;;;;;;;9.90;66.40;101102.53;5089045;28;20020;-25
2022/10/21 00:36:43;;;;;;;7.10;3.17;;;;;;;9.63;67.23;101109.44;5089037;28;20089;-26
2022/10/21 00:39:09;;;;;;;6.38;3.00;;;;;;;9.65;66.74;101084.25;5088859;28;20039;-28
2022/10/21 00:41:34;;;;;;;6.65;3.15;;;;;;;9.79;66.64;101103.06;5088891;28;20494;-26
2022/10/21 00:44:07;;;;;;;8.98;3.67;;;;;;;9.85;66.37;101081.00;5107329;28;20031;-29
2022/10/21 00:46:36;;;;;;;9.93;3.30;;;;;;;10.01;65.90;101111.88;5107605;28;20092;-28
2022/10/21 00:49:06;;;;;;;8.00;3.50;;;;;;;10.09;65.62;101114.41;5088858;28;20556;-30
2022/10/21 00:51:32;;;;;;;8.07;3.53;;;;;;;9.97;66.34;101116.78;5107553;28;20034;-25
2022/10/21 00:53:58;;;;;;;7.65;3.72;;;;;;;9.83;66.67;101107.00;5088674;28;20409;-29
2022/10/21 00:56:27;;;;;;;8.18;4.22;;;;;;;9.82;66.36;101090.16;5107376;28;20848;-26
2022/10/21 00:58:56;;;;;;;10.32;4.38;;;;;;;10.00;66.08;101105.72;5107302;28;20069;-27
2022/10/21 01:01:22;;;;;;;8.63;3.83;;;;;;;9.96;66.53;101099.13;5107200;28;20032;-27
2022/10/21 01:03:48;;;;;;;10.43;4.55;;;;;;;9.80;67.27;101104.69;5088770;28;20424;-26
2022/10/21 01:06:15;;;;;;;14.43;5.57;;;;;;;9.88;66.56;101101.09;5107340;28;20084;-27
2022/10/21 01:08:40;;;;;;;15.27;6.97;;;;;;;9.67;66.97;101077.91;5090035;28;20114;-27
2022/10/21 01:11:12;;;;;;;12.52;6.03;;;;;;;9.98;66.86;101106.94;5092574;28;20114;-25
2022/10/21 01:14:11;;;;;;;17.45;7.65;;;;;;;9.83;66.77;101101.66;5111019;28;20107;-26
2022/10/21 01:16:58;;;;;;;17.13;6.72;;;;;;;9.90;66.96;101104.41;5092370;28;20061;-27
2022/10/21 01:20:01;;;;;;;15.55;6.45;;;;;;;9.98;66.49;101101.59;5111047;28;20031;-28
2022/10/21 01:23:00;;;;;;;15.93;7.55;;;;;;;9.83;66.73;101093.69;5110541;28;20136;-28
2022/10/21 01:26:04;;;;;;;14.18;7.85;;;;;;;9.91;66.60;101106.88;5110461;28;20032;-26
2022/10/21 01:28:54;;;;;;;20.15;15.35;;;;;;;9.93;66.62;101104.84;5092067;28;20762;-26
2022/10/21 01:32:04;;;;;;;12.98;9.18;;;;;;;10.19;65.81;101114.09;5092158;28;20072;-27
2022/10/21 01:34:41;;;;;;;12.23;6.63;;;;;;;9.79;67.32;101114.53;5027041;28;20029;-27
2022/10/21 01:37:17;;;;;;;12.23;6.38;;;;;;;9.65;68.09;101107.41;5027285;28;20096;-28
2022/10/21 01:39:56;;;;;;;12.15;6.63;;;;;;;9.73;67.98;101101.97;5077514;28;20040;-26
2022/10/21 01:42:38;;;;;;;8.95;6.00;;;;;;;9.74;68.04;101114.25;5110453;28;20487;-25
2022/10/21 01:45:13;;;;;;;12.85;6.72;;;;;;;9.71;67.75;101108.50;5110766;28;20066;-29
2022/10/21 01:47:42;;;;;;;11.50;6.05;;;;;;;9.70;68.08;101112.97;5110190;28;20035;-30
2022/10/21 01:50:20;;;;;;;9.25;5.72;;;;;;;9.51;68.54;101111.72;5110139;28;20512;-25
2022/10/21 01:52:50;;;;;;;16.67;6.60;;;;;;;9.53;68.56;101123.03;5109949;28;20754;-26
2022/10/21 01:55:21;;;;;;;10.98;6.03;;;;;;;9.52;68.47;101105.41;5110167;28;20039;-27
2022/10/21 01:57:58;;;;;;;10.68;6.05;;;;;;;9.57;68.03;101118.97;5109969;28;20047;-27
2022/10/21 02:00:24;;;;;;;10.90;5.50;;;;;;;9.75;67.39;101117.75;5091073;28;20035;-27
2022/10/21 02:02:50;;;;;;;13.32;6.03;;;;;;;9.70;68.06;101122.81;5090870;28;20051;-25
2022/10/21 02:05:19;;;;;;;8.93;4.80;;;;;;;9.62;67.79;101121.94;5110026;28;20035;-27
2022/10/21 02:07:46;;;;;;;10.30;4.97;;;;;;;9.63;67.52;101104.91;5109861;28;20024;-27
2022/10/21 02:10:11;;;;;;;8.23;4.80;;;;;;;9.67;67.76;101121.34;5110157;28;20023;-25
2022/10/21 02:12:40;;;;;;;10.27;4.65;;;;;;;9.30;69.16;101109.03;5109692;28;20430;-25
2022/10/21 02:15:08;;;;;;;12.30;4.65;;;;;;;9.21;69.21;101117.09;5109629;28;20471;-27
2022/10/21 02:17:36;;;;;;;8.43;4.10;;;;;;;9.29;69.34;101128.66;5109600;28;20032;-26
2022/10/21 02:20:05;;;;;;;;;;;;;;;9.14;69.60;101137.47;5110447;28;20085;-25
2022/10/21 02:22:32;;;;;;;9.27;4.10;;;;;;;9.05;70.08;101111.94;5109321;28;19911;-27
2022/10/21 02:25:05;;;;;;;8.30;4.40;;;;;;;9.21;69.98;101133.06;5109758;28;20113;-30
2022/10/21 02:27:31;;;;;;;9.85;4.40;;;;;;;9.28;69.63;101121.69;5109438;28;20024;-25
2022/10/21 02:29:58;;;;;;;10.63;4.93;;;;;;;9.39;69.32;101129.19;5109321;28;20479;-26
2022/10/21 02:32:51;;;;;;;10.05;4.65;;;;;;;9.62;69.18;101140.56;5090788;28;20487;-26
2022/10/21 02:35:29;;;;;;;10.82;4.53;;;;;;;9.78;68.47;101150.16;5090723;28;20186;-27
2022/10/21 02:38:00;;;;;;;8.50;4.68;;;;;;;9.86;67.73;101149.22;5109523;28;20028;-26
2022/10/21 02:40:43;;;;;;;17.05;8.65;;;;;;;9.65;67.72;101145.50;5108871;28;20114;-26
2022/10/21 02:43:18;;;;;;;26.45;11.48;;;;;;;9.39;68.39;101155.81;5108937;28;20038;-26
2022/10/21 02:45:45;;;;;;;22.27;9.63;;;;;;;9.09;69.32;101139.00;5109084;28;20024;-26
2022/10/21 02:48:11;;;;;;;25.67;9.52;;;;;;;9.25;68.73;101134.34;5108807;28;20077;-25
2022/10/21 02:50:36;;;;;;;16.55;7.47;;;;;;;9.22;69.46;101153.34;5090201;28;20032;-27
2022/10/21 02:53:02;;;;;;;14.55;7.28;;;;;;;8.82;71.49;101144.75;5090365;28;20103;-26
2022/10/21 02:55:27;;;;;;;24.83;9.65;;;;;;;9.30;69.86;101162.25;5108985;28;20092;-27
2022/10/21 02:57:53;;;;;;;26.73;10.45;;;;;;;9.34;70.04;101166.22;5108916;28;20533;-27
2022/10/21 03:00:18;;;;;;;37.33;10.18;;;;;;;9.34;69.78;101153.72;5108168;28;20445;-28
2022/10/21 03:02:44;;;;;;;30.02;10.43;;;;;;;9.30;68.77;101136.47;5108402;28;20063;-27
2022/10/21 03:05:11;;;;;;;22.17;9.70;;;;;;;9.25;69.75;101166.28;5108526;28;20415;-27
2022/10/21 03:07:37;;;;;;;22.00;8.48;;;;;;;9.31;68.85;101166.56;5090276;28;20059;-26
2022/10/21 03:10:02;;;;;;;15.10;6.70;;;;;;;9.34;69.11;101174.19;5108552;28;20464;-27
2022/10/21 03:12:28;;;;;;;13.00;5.72;;;;;;;9.19;69.41;101167.03;5089979;28;20031;-26
2022/10/21 03:14:53;;;;;;;9.38;5.47;;;;;;;9.01;69.80;101177.16;5108643;28;20031;-26
2022/10/21 03:17:19;;;;;;;10.13;5.53;;;;;;;9.01;69.64;101170.03;5089904;28;20554;-27
2022/10/21 03:19:44;;;;;;;11.65;4.75;;;;;;;8.97;69.87;101158.09;5108457;28;20024;-27
2022/10/21 03:22:09;;;;;;;9.07;5.20;;;;;;;8.71;71.14;101185.09;5107617;28;20051;-26
2022/10/21 03:24:35;;;;;;;8.95;4.80;;;;;;;8.51;71.53;101165.31;5106983;28;20035;-26
2022/10/21 03:27:00;;;;;;;8.55;4.20;;;;;;;8.53;71.18;101168.63;5089785;28;20023;-29
2022/10/21 03:29:26;;;;;;;10.63;4.85;;;;;;;8.54;71.17;101175.56;5108552;28;20027;-25
2022/10/21 03:31:51;;;;;;;9.35;4.00;;;;;;;8.62;70.96;101186.16;5107588;28;20043;-33
2022/10/21 03:34:16;;;;;;;8.77;4.13;;;;;;;8.58;70.45;101177.72;5107895;28;20030;-27
2022/10/21 03:36:42;;;;;;;9.30;3.75;;;;;;;8.55;70.42;101186.03;5107814;28;20031;-26
2022/10/21 03:39:09;;;;;;;9.50;3.75;;;;;;;8.56;71.09;101189.53;5108221;28;20456;-28
2022/10/21 03:41:34;;;;;;;10.35;4.00;;;;;;;8.57;71.41;101177.91;5108027;28;20032;-31
2022/10/21 03:44:00;;;;;;;9.63;4.07;;;;;;;8.60;71.20;101162.44;5107752;28;20402;-28
2022/10/21 03:46:25;;;;;;;6.25;3.65;;;;;;;8.67;70.74;101157.22;5107695;28;20035;-27
2022/10/21 03:48:51;;;;;;;8.70;4.22;;;;;;;8.87;70.42;101164.66;5107679;28;20016;-30
2022/10/21 03:51:16;;;;;;;10.25;5.63;;;;;;;8.89;70.45;101189.25;5107630;28;20195;-27
2022/10/21 03:53:41;;;;;;;16.45;7.82;;;;;;;9.04;69.28;101185.63;5107916;28;20031;-28
2022/10/21 03:56:07;;;;;;;13.40;6.78;;;;;;;9.07;69.17;101183.59;5089296;28;20028;-27
2022/10/21 03:58:34;;;;;;;15.30;7.00;;;;;;;8.92;69.23;101180.94;5107669;28;20024;-25
2022/10/21 04:01:00;;;;;;;14.02;6.57;;;;;;;8.85;69.14;101186.97;5089091;28;20038;-29
2022/10/21 04:03:25;;;;;;;11.80;5.78;;;;;;;8.39;70.35;101170.19;5089040;28;20051;-27
2022/10/21 04:05:51;;;;;;;11.35;5.60;;;;;;;8.04;71.62;101167.09;5107806;28;20518;-27
2022/10/21 04:08:16;;;;;;;11.85;5.97;;;;;;;8.05;71.34;101190.84;5107618;28;20032;-25
2022/10/21 04:10:43;;;;;;;14.00;6.20;;;;;;;8.26;69.69;101181.41;5089366;28;20589;-25
2022/10/21 04:13:09;;;;;;;11.60;6.15;;;;;;;8.37;68.83;101161.56;5107780;28;20023;-26
2022/10/21 04:15:34;;;;;;;10.73;6.60;;;;;;;8.55;68.37;101174.59;5107653;28;20028;-26
2022/10/21 04:17:59;;;;;;;12.57;5.60;;;;;;;8.52;68.03;101157.16;5089038;28;20840;-28
2022/10/21 04:20:25;;;;;;;11.27;5.20;;;;;;;8.56;68.23;101185.06;5107254;28;20043;-27
2022/10/21 04:22:50;;;;;;;13.73;5.47;;;;;;;8.45;68.11;101164.19;5107680;28;20039;-25
2022/10/21 04:25:16;;;;;;;9.75;4.90;;;;;;;8.14;69.19;101151.75;5107486;28;20035;-30
2022/10/21 04:27:41;;;;;;;7.93;4.95;;;;;;;8.12;70.66;101176.84;5107833;28;20024;-28
2022/10/21 04:30:07;;;;;;;10.80;5.65;;;;;;;7.80;71.33;101162.72;5089439;28;20028;-26
2022/10/21 04:32:33;;;;;;;12.00;6.18;;;;;;;7.91;71.26;101194.22;5107217;28;20030;-26
2022/10/21 04:34:58;;;;;;;13.93;6.68;;;;;;;8.16;69.58;101167.53;5107359;28;20031;-26
2022/10/21 04:37:23;;;;;;;19.02;8.23;;;;;;;8.44;69.07;101186.47;5107617;28;20023;-30
2022/10/21 04:39:49;;;;;;;18.88;7.70;;;;;;;8.25;69.39;101191.22;5107553;28;20024;-25
2022/10/21 04:42:14;;;;;;;12.98;6.88;;;;;;;8.14;69.83;101172.19;5107627;28;20403;-29
2022/10/21 04:44:40;;;;;;;16.58;7.47;;;;;;;8.15;70.36;101200.41;5110205;28;20036;-27
2022/10/21 04:47:05;;;;;;;20.02;7.47;;;;;;;8.24;69.97;101194.88;5092553;28;20116;-25
2022/10/21 04:49:30;;;;;;;22.48;7.22;;;;;;;7.63;71.88;101199.97;5111088;28;20024;-26
2022/10/21 04:51:56;;;;;;;24.00;9.52;;;;;;;7.39;70.94;101192.09;5111496;28;20032;-26
2022/10/21 04:54:21;;;;;;;21.40;8.90;;;;;;;7.30;69.35;101180.69;5111018;28;20498;-28
2022/10/21 04:56:47;;;;;;;24.45;9.98;;;;;;;7.50;69.04;101196.19;5111603;28;20133;-27
2022/10/21 04:59:12;;;;;;;21.45;8.63;;;;;;;7.37;70.14;101202.06;5111192;28;20020;-27
2022/10/21 05:01:38;;;;;;;17.60;7.35;;;;;;;7.34;69.92;101181.19;5110895;28;20032;-27
2022/10/21 05:04:03;;;;;;;19.55;7.43;;;;;;;7.52;69.69;101179.13;5110768;28;20051;-26
2022/10/21 05:06:28;;;;;;;16.67;7.18;;;;;;;7.50;70.44;101175.81;5092508;28;20467;-26
2022/10/21 05:08:54;;;;;;;16.25;6.93;;;;;;;7.53;70.35;101183.41;5092743;28;20756;-26
2022/10/21 05:11:19;;;;;;;16.15;6.78;;;;;;;7.33;72.13;101201.56;5110977;28;20491;-28
2022/10/21 05:13:45;;;;;;;13.77;7.05;;;;;;;7.64;71.67;101208.75;5111090;28;20467;-27
2022/10/21 05:16:10;;;;;;;16.70;6.43;;;;;;;7.03;74.26;101203.13;5110892;28;20027;-26
2022/10/21 05:18:36;;;;;;;19.05;6.78;;;;;;;7.30;72.67;101196.59;5110425;28;20042;-27
2022/10/21 05:21:01;;;;;;;17.65;7.18;;;;;;;7.63;72.35;101210.59;5110620;28;20130;-26
2022/10/21 05:23:27;;;;;;;15.93;8.02;;;;;;;7.84;70.95;101193.25;5110733;28;20047;-30
2022/10/21 05:25:53;;;;;;;13.90;6.78;;;;;;;8.16;70.44;101218.84;5092436;28;20043;-30
2022/10/21 05:28:19;;;;;;;14.85;7.07;;;;;;;8.15;70.58;101233.13;5110312;28;20410;-29
2022/10/21 05:30:44;;;;;;;13.50;6.55;;;;;;;8.15;70.70;101224.31;5110663;28;20104;-29
2022/10/21 05:33:10;;;;;;;15.88;6.55;;;;;;;8.27;70.49;101236.19;5110741;28;20063;-29
2022/10/21 05:35:36;;;;;;;15.60;6.35;;;;;;;8.54;69.51;101236.72;5092084;28;20028;-32
2022/10/21 05:38:03;;;;;;;15.73;6.68;;;;;;;8.30;70.44;101235.88;5092174;28;20067;-29
2022/10/21 05:40:28;;;;;;;16.65;6.47;;;;;;;8.21;71.14;101231.59;5110197;28;20110;-31
2022/10/21 05:42:54;;;;;;;16.48;6.93;;;;;;;8.45;70.30;101231.47;5110417;28;20111;-28
2022/10/21 05:45:20;;;;;;;16.70;6.90;;;;;;;8.64;69.59;101232.00;5110220;28;20023;-28
2022/10/21 05:47:45;;;;;;;16.80;8.68;;;;;;;8.80;69.05;101234.53;5110257;28;20032;-25
2022/10/21 05:50:11;;;;;;;17.92;7.70;;;;;;;9.08;68.49;101249.97;5109845;28;20031;-27
2022/10/21 05:52:38;;;;;;;17.73;7.20;;;;;;;8.68;69.99;101228.00;5109976;28;20035;-26
2022/10/21 05:55:04;;;;;;;22.13;11.30;;;;;;;9.06;68.48;101249.31;5109598;28;20033;-32
2022/10/21 05:57:37;;;;;;;26.15;8.57;;;;;;;8.96;69.40;101246.88;5091844;28;20032;-25
2022/10/21 06:00:07;;;;;;;19.15;8.90;;;;;;;9.25;69.47;101238.16;5091447;28;20027;-30
2022/10/21 06:02:32;;;;;;;14.95;8.40;;;;;;;9.33;68.57;101236.41;5109403;28;20031;-29
2022/10/21 06:04:58;;;;;;;19.75;8.50;;;;;;;9.50;68.50;101239.72;5109947;28;20047;-28
2022/10/21 06:07:23;;;;;;;21.52;10.05;;;;;;;9.75;68.48;101256.28;5109496;28;20077;-28
2022/10/21 06:09:49;;;;;;;24.05;10.73;;;;;;;10.06;67.80;101254.22;5109847;28;20024;-25
2022/10/21 06:12:14;;;;;;;19.58;8.77;;;;;;;9.68;69.05;101239.38;5109403;28;20081;-24
2022/10/21 06:14:39;;;;;;;19.02;7.82;;;;;;;9.54;69.91;101239.19;5109615;28;20074;-28
2022/10/21 06:17:05;;;;;;;20.00;7.75;;;;;;;10.01;68.98;101255.78;5109676;28;20035;-28
2022/10/21 06:19:30;;;;;;;21.67;8.90;;;;;;;10.47;66.82;101249.38;5109984;28;20106;-25
2022/10/21 06:21:57;;;;;;;20.00;8.52;;;;;;;10.53;67.26;101259.31;5091067;28;20474;-26
2022/10/21 06:24:23;;;;;;;20.48;8.25;;;;;;;10.64;66.43;101266.78;5109490;28;20043;-26
2022/10/21 06:26:50;;;;;;;14.38;7.57;;;;;;;10.78;66.25;101262.41;5091268;28;20681;-28
2022/10/21 06:29:16;;;;;;;17.55;6.18;;;;;;;10.84;65.74;101261.66;5109419;28;20028;-25
2022/10/21 06:31:42;;;;;;;12.00;6.15;;;;;;;10.82;66.74;101243.16;5109288;28;20084;-24
2022/10/21 06:34:07;;;;;;;10.55;5.38;;;;;;;11.25;64.74;101263.63;5109193;28;20028;-25
2022/10/21 06:36:32;;;;;;;13.15;5.43;;;;;;;11.29;64.54;101242.72;5109385;28;20028;-26
2022/10/21 06:38:58;;;;;;;13.95;4.75;;;;;;;11.55;63.71;101258.09;5109028;28;20059;-25
2022/10/21 06:41:23;;;;;;;10.50;4.60;;;;;;;11.60;64.03;101258.31;5090869;28;20027;-24
2022/10/21 06:43:49;;;;;;;7.50;3.53;;;;;;;11.57;63.94;101267.56;5109084;28;20039;-26
2022/10/21 06:46:15;;;;;;;12.25;4.32;;;;;;;11.46;64.83;101260.06;5108981;28;20031;-29
2022/10/21 06:48:41;;;;;;;13.02;4.53;;;;;;;11.80;64.23;101271.81;5109165;28;20036;-25
2022/10/21 06:51:13;;;;;;;13.52;5.88;;;;;;;12.03;62.47;101272.38;5090683;28;20031;-26
2022/10/21 06:53:39;;;;;;;10.25;5.18;;;;;;;12.04;62.77;101263.31;5109084;28;20028;-27
2022/10/21 06:56:08;;;;;;;14.38;7.18;;;;;;;12.28;61.95;101263.84;5109006;28;20031;-26
2022/10/21 06:58:35;;;;;;;13.60;6.38;;;;;;;12.27;61.52;101259.50;5108767;28;20027;-25
2022/10/21 07:01:09;;;;;;;13.73;5.55;;;;;;;12.43;61.70;101256.47;5108564;28;20039;-26
2022/10/21 07:03:34;;;;;;;10.85;5.03;;;;;;;12.71;61.10;101268.03;5090399;28;20031;-26
2022/10/21 07:06:00;;;;;;;11.90;4.18;;;;;;;12.49;61.52;101270.88;5108140;28;20020;-28
2022/10/21 07:08:30;;;;;;;8.40;4.22;;;;;;;12.70;61.22;101282.47;5108813;28;20125;-26
2022/10/21 07:10:55;;;;;;;10.35;5.38;;;;;;;12.83;59.84;101256.53;5108746;28;20058;-25
2022/10/21 07:13:22;;;;;;;12.85;5.45;;;;;;;12.72;60.01;101245.63;5090089;28;20055;-27
2022/10/21 07:15:56;;;;;;;9.38;5.22;;;;;;;12.70;61.13;101261.06;5090107;28;20076;-26
2022/10/21 07:18:22;;;;;;;7.40;4.55;;;;;;;12.82;60.75;101251.38;5090028;28;20063;-25
2022/10/21 07:20:47;;;;;;;9.45;4.90;;;;;;;13.16;59.68;101249.56;5108147;28;20070;-30
2022/10/21 07:23:13;;;;;;;10.43;5.40;;;;;;;13.27;59.07;101247.06;5089914;28;20034;-27
2022/10/21 07:25:38;;;;;;;11.15;5.07;;;;;;;13.52;58.80;101254.47;5108268;28;20027;-26
2022/10/21 07:28:04;;;;;;;10.02;5.90;;;;;;;13.09;59.75;101238.81;5108359;28;20020;-26
2022/10/21 07:30:29;;;;;;;11.90;6.03;;;;;;;13.41;59.11;101257.81;5108185;28;20031;-27
2022/10/21 07:32:55;;;;;;;13.82;5.88;;;;;;;13.38;58.61;101216.19;5108015;28;20474;-27
2022/10/21 07:35:20;;;;;;;13.63;6.20;;;;;;;13.57;58.54;101246.63;5108151;28;20035;-28
2022/10/21 07:37:45;;;;;;;13.38;5.45;;;;;;;13.42;59.75;101243.34;5107870;28;20032;-28
2022/10/21 07:40:11;;;;;;;13.60;6.55;;;;;;;13.33;60.62;101258.00;5108171;28;20032;-26
2022/10/21 07:42:36;;;;;;;14.32;6.50;;;;;;;13.60;59.27;101251.56;5107617;28;20051;-26
2022/10/21 07:45:02;;;;;;;14.43;6.07;;;;;;;13.71;58.55;101260.00;5107927;28;20088;-26
2022/10/21 07:47:28;;;;;;;23.33;6.90;;;;;;;14.17;57.18;101257.16;5107854;28;20022;-26
2022/10/21 07:49:53;;;;;;;13.60;6.78;;;;;;;14.36;57.03;101249.22;5089587;28;20392;-26
2022/10/21 07:52:19;;;;;;;12.57;6.70;;;;;;;14.43;56.86;101239.28;5107717;28;20084;-27
2022/10/21 07:54:44;;;;;;;17.17;8.10;;;;;;;14.60;55.66;101240.44;5107977;28;20515;-28
2022/10/21 07:57:10;;;;;;;14.32;7.53;;;;;;;14.63;56.39;101250.75;5107662;28;20031;-26
2022/10/21 07:59:35;;;;;;;12.40;6.65;;;;;;;14.58;55.93;101236.31;5107629;28;20135;-28
2022/10/21 08:02:01;;;;;;;12.70;6.30;;;;;;;14.47;56.08;101241.31;5107574;28;20031;-29
2022/10/21 08:04:30;;;;;;;11.70;6.30;;;;;;;14.68;55.39;101235.84;5107345;28;20052;-25
2022/10/21 08:06:57;;;;;;;12.55;6.20;;;;;;;14.68;55.48;101225.09;5089191;28;20051;-29
2022/10/21 08:09:23;;;;;;;13.30;7.25;;;;;;;14.75;56.46;101241.97;5089108;28;20030;-28
2022/10/21 08:11:48;;;;;;;16.92;8.52;;;;;;;14.85;55.51;101227.03;5089026;28;20023;-26
2022/10/21 08:14:14;;;;;;;22.20;11.88;;;;;;;15.15;55.51;101237.13;5107742;28;20507;-25
2022/10/21 08:16:40;;;;;;;14.73;7.47;;;;;;;15.21;55.41;101238.91;5108134;28;20070;-28
2022/10/21 08:19:07;;;;;;;13.18;5.97;;;;;;;15.33;55.12;101230.16;5111690;28;20035;-26
2022/10/21 08:21:33;;;;;;;14.50;6.60;;;;;;;15.65;54.14;101230.81;5111721;28;20020;-26
2022/10/21 08:24:01;;;;;;;14.27;5.88;;;;;;;15.93;52.59;101238.38;5111903;28;20787;-25
2022/10/21 08:26:26;;;;;;;11.73;6.43;;;;;;;15.46;54.21;101216.56;5111201;28;20456;-29
2022/10/21 08:28:52;;;;;;;12.80;5.93;;;;;;;15.57;54.25;101226.59;5111837;28;20486;-27
2022/10/21 08:31:19;;;;;;;13.25;7.22;;;;;;;15.51;54.41;101214.03;5111633;28;20031;-27
2022/10/21 08:33:46;;;;;;;13.77;6.43;;;;;;;15.62;54.14;101232.09;5110911;28;20027;-27
2022/10/21 08:36:17;;;;;;;14.02;7.05;;;;;;;15.62;53.64;101232.09;5111714;28;20042;-27
2022/10/21 08:38:44;;;;;;;150.88;56.03;;;;;;;15.57;54.40;101215.81;5111331;28;20057;-26
2022/10/21 08:41:28;;;;;;;18.83;9.50;;;;;;;15.77;54.37;101209.41;5096642;28;20706;-26
2022/10/21 08:44:01;;;;;;;12.93;6.38;;;;;;;16.10;53.10;101237.78;5091041;28;20093;-27
2022/10/21 08:46:35;;;;;;;61.95;34.95;;;;;;;16.47;52.21;101217.78;5090790;28;20032;-25
2022/10/21 08:49:16;;;;;;;13.88;6.63;;;;;;;16.76;52.00;101236.03;5090349;28;20024;-26
2022/10/21 08:51:57;;;;;;;11.40;6.35;;;;;;;16.98;50.85;101209.34;5090878;28;20037;-27
2022/10/21 08:54:52;;;;;;;12.25;6.35;;;;;;;17.52;49.04;101233.50;5090620;28;20031;-26
2022/10/21 08:57:18;;;;;;;12.85;7.72;;;;;;;17.47;50.35;101207.25;5088597;28;20066;-30
2022/10/21 08:59:45;;;;;;;22.23;13.13;;;;;;;17.64;49.10;101221.63;5090515;28;20071;-28
2022/10/21 09:02:16;;;;;;;36.08;27.70;;;;;;;17.27;49.76;101221.91;5090362;28;20043;-26
2022/10/21 09:04:50;;;;;;;51.88;42.05;;;;;;;17.17;50.54;101216.28;5090512;28;20051;-25
2022/10/21 09:07:42;;;;;;;43.92;33.28;;;;;;;17.58;49.81;101217.19;5089267;28;20164;-26
2022/10/21 09:10:26;;;;;;;29.85;24.67;;;;;;;17.53;48.77;101206.31;5082330;28;20066;-28
2022/10/21 09:12:52;;;;;;;37.90;29.65;;;;;;;17.67;49.35;101209.53;5090894;28;20051;-28
2022/10/21 09:15:26;;;;;;;21.48;14.98;;;;;;;17.66;48.28;101218.69;5090455;28;20035;-26
2022/10/21 09:18:27;;;;;;;21.30;14.27;;;;;;;17.61;48.41;101214.03;5090521;28;20020;-27
2022/10/21 09:20:53;;;;;;;46.63;37.22;;;;;;;17.36;49.20;101213.47;5083307;28;20526;-27
2022/10/21 09:23:37;;;;;;;35.15;29.75;;;;;;;17.23;49.49;101193.78;5090401;28;20028;-29
2022/10/21 09:26:26;;;;;;;35.15;29.20;;;;;;;17.63;48.92;101198.44;5089921;28;20032;-26
2022/10/21 09:28:52;;;;;;;24.20;14.60;;;;;;;17.78;48.98;101207.88;5089381;28;20021;-26
2022/10/21 09:31:21;;;;;;;22.27;16.73;;;;;;;17.88;48.43;101200.03;5090108;28;20032;-28
2022/10/21 09:33:52;;;;;;;19.15;14.60;;;;;;;17.93;47.64;101183.91;5088434;28;20039;-29
2022/10/21 09:36:46;;;;;;;21.63;13.35;;;;;;;18.02;49.93;101177.09;5089858;28;20097;-26
2022/10/21 09:39:35;;;;;;;19.75;11.98;;;;;;;18.23;46.92;101182.88;5089535;28;20059;-29
2022/10/21 09:42:00;;;;;;;14.18;8.48;;;;;;;18.28;47.52;101182.94;5089870;28;20032;-28
2022/10/21 09:44:26;;;;;;;9.27;6.10;;;;;;;17.70;47.29;101165.09;5089355;28;20024;-26
2022/10/21 09:46:52;;;;;;;12.25;5.60;;;;;;;18.08;47.60;101188.78;5090160;28;20397;-31
2022/10/21 09:49:29;;;;;;;13.05;7.03;;;;;;;18.54;46.42;101186.09;5087980;28;20028;-28
2022/10/21 09:51:58;;;;;;;12.48;6.97;;;;;;;18.87;45.93;101180.72;5089848;28;20046;-26
2022/10/21 09:54:26;;;;;;;13.65;7.07;;;;;;;18.86;46.08;101168.28;5089748;28;20035;-26
2022/10/21 09:57:04;;;;;;;9.27;6.40;;;;;;;18.78;45.36;101163.25;5089744;28;20032;-27
2022/10/21 09:59:31;;;;;;;11.68;6.18;;;;;;;19.10;44.37;101168.06;5089531;28;20080;-27
2022/10/21 10:02:05;;;;;;;9.95;6.57;;;;;;;19.16;44.31;101161.66;5087951;28;20563;-27
2022/10/21 10:04:32;;;;;;;11.55;6.32;;;;;;;19.51;43.60;101174.03;5089016;28;20043;-27
2022/10/21 10:07:17;;;;;;;11.60;6.93;;;;;;;19.62;43.48;101154.16;5089274;28;20024;-29
2022/10/21 10:09:45;;;;;;;9.52;6.22;;;;;;;20.14;42.83;101171.78;5087721;28;20093;-25
2022/10/21 10:12:16;;;;;;;10.65;6.10;;;;;;;20.02;42.16;101163.00;5087820;28;20813;-25
2022/10/21 10:14:44;;;;;;;8.38;6.15;;;;;;;19.33;42.90;101140.00;5088801;28;20032;-26
2022/10/21 10:17:34;;;;;;;8.70;5.03;;;;;;;19.47;42.31;101148.53;5089557;28;20027;-27
2022/10/21 10:20:02;;;;;;;9.90;5.55;;;;;;;19.59;42.13;101157.34;5087651;28;20089;-27
2022/10/21 10:22:36;;;;;;;10.65;5.38;;;;;;;19.82;41.53;101133.84;5088675;28;20081;-29
2022/10/21 10:25:10;;;;;;;10.73;5.43;;;;;;;19.57;42.89;101145.97;5088845;28;20032;-26
2022/10/21 10:27:52;;;;;;;11.40;5.30;;;;;;;19.78;41.44;101141.66;5089004;28;20024;-29
2022/10/21 10:30:19;;;;;;;11.32;5.68;;;;;;;20.06;40.37;101124.34;5088565;28;20422;-27
2022/10/21 10:32:46;;;;;;;9.77;5.32;;;;;;;20.44;41.27;101130.59;5087231;28;20028;-26
2022/10/21 10:35:23;;;;;;;10.15;5.57;;;;;;;19.99;41.06;101131.84;5088678;28;20019;-27
2022/10/21 10:37:50;;;;;;;10.00;5.00;;;;;;;20.10;40.73;101110.28;5088795;28;20043;-27
2022/10/21 10:40:22;;;;;;;8.30;5.05;;;;;;;20.34;39.46;101121.59;5088104;28;20028;-28
2022/10/21 10:42:51;;;;;;;10.95;5.85;;;;;;;20.38;38.93;101126.22;5088003;28;20096;-31
2022/10/21 10:45:21;;;;;;;11.20;5.68;;;;;;;20.32;39.68;101126.44;5088597;28;20043;-27
2022/10/21 10:47:52;;;;;;;8.10;5.53;;;;;;;20.39;39.50;101113.50;5087045;28;20088;-27
2022/10/21 10:50:36;;;;;;;11.30;5.80;;;;;;;20.75;37.89;101111.09;5088404;28;20067;-27
2022/10/21 10:53:22;;;;;;;11.13;5.97;;;;;;;20.54;38.49;101104.69;5088404;28;20622;-26
2022/10/21 10:56:16;;;;;;;10.65;6.60;;;;;;;20.41;38.69;101081.53;5088363;28;20054;-27
2022/10/21 10:58:50;;;;;;;8.05;5.35;;;;;;;20.82;39.75;101071.81;5064363;28;20036;-26
2022/10/21 11:01:24;;;;;;;8.82;6.05;;;;;;;21.04;37.45;101100.66;5088185;28;20492;-29
2022/10/21 11:03:56;;;;;;;7.75;5.60;;;;;;;21.38;37.20;101103.00;5088153;28;20047;-27
2022/10/21 11:06:35;;;;;;;9.30;4.90;;;;;;;21.96;36.65;101087.41;5087669;28;20024;-33
2022/10/21 11:09:01;;;;;;;8.93;5.60;;;;;;;21.98;36.00;101079.78;5087987;28;20522;-29
2022/10/21 11:11:39;;;;;;;13.68;5.50;;;;;;;22.26;35.66;101091.25;5088020;28;20043;-27
2022/10/21 11:14:13;;;;;;;14.68;5.88;;;;;;;22.45;35.56;101086.06;5086564;28;20024;-26
2022/10/21 11:16:56;;;;;;;8.50;5.65;;;;;;;22.42;34.70;101092.88;5087558;28;20464;-27
2022/10/21 11:19:27;;;;;;;13.23;6.03;;;;;;;22.55;34.44;101082.53;5087606;28;20028;-27
2022/10/21 11:22:05;;;;;;;10.75;5.40;;;;;;;22.86;34.07;101075.94;5087664;28;20081;-27
2022/10/21 11:24:49;;;;;;;9.05;5.72;;;;;;;22.65;35.15;101066.22;5087825;28;20036;-27
2022/10/21 11:27:43;;;;;;;9.80;5.65;;;;;;;22.93;34.07;101066.69;5087635;28;20024;-28
2022/10/21 11:30:11;;;;;;;13.32;5.50;;;;;;;22.64;34.98;101056.44;5087541;28;20166;-26
2022/10/21 11:33:10;;;;;;;10.40;6.00;;;;;;;22.87;34.08;101063.97;5086755;28;20252;-26